createdAt,value
2023-02-05T00:01:13.286Z,6.50
2023-02-05T00:03:45.132Z,6.57
2023-02-05T00:06:17.067Z,4.82
2023-02-05T00:08:48.879Z,4.07
2023-02-05T00:11:20.686Z,3.63
2023-02-05T00:13:52.800Z,3.58
2023-02-05T00:16:25.443Z,4.72
2023-02-05T00:18:57.474Z,5.72
2023-02-05T00:21:29.244Z,3.50
2023-02-05T00:24:00.985Z,5.45
2023-02-05T00:26:32.686Z,4.38
2023-02-05T00:29:05.265Z,4.93
2023-02-05T00:31:37.473Z,4.53
2023-02-05T00:34:09.541Z,4.57
2023-02-05T00:36:41.922Z,4.43
2023-02-05T00:39:14.730Z,5.03
2023-02-05T00:41:46.439Z,5.95
2023-02-05T00:44:21.264Z,3.67
2023-02-05T00:49:24.627Z,5.82
2023-02-05T00:51:57.997Z,6.50
2023-02-05T00:54:30.995Z,5.32
2023-02-05T00:57:03.139Z,5.35
2023-02-05T00:59:38.044Z,3.83
2023-02-05T01:02:09.812Z,6.88
2023-02-05T01:04:41.677Z,3.88
2023-02-05T01:07:16.788Z,3.20
2023-02-05T01:09:48.418Z,4.18
2023-02-05T01:12:23.247Z,3.17
2023-02-05T01:17:26.790Z,7.75
2023-02-05T01:19:58.527Z,3.97
2023-02-05T01:22:35.506Z,3.45
2023-02-05T01:25:08.798Z,4.20
2023-02-05T01:27:41.627Z,5.13
2023-02-05T01:30:13.747Z,4.30
2023-02-05T01:32:45.526Z,3.53
2023-02-05T01:35:17.275Z,3.00
2023-02-05T01:37:49.045Z,9.85
2023-02-05T01:40:21.662Z,6.13
2023-02-05T01:43:04.159Z,3.28
2023-02-05T01:45:51.091Z,3.72
2023-02-05T01:48:28.426Z,4.93
2023-02-05T01:51:06.269Z,5.78
2023-02-05T01:53:43.769Z,3.80
2023-02-05T01:56:30.943Z,4.07
2023-02-05T01:59:41.375Z,5.05
2023-02-05T02:02:14.529Z,4.80
2023-02-05T02:04:52.245Z,6.38
2023-02-05T02:07:24.958Z,4.05
2023-02-05T02:09:59.233Z,7.25
2023-02-05T02:12:35.411Z,4.05
2023-02-05T02:15:13.140Z,5.95
2023-02-05T02:17:50.175Z,7.07
2023-02-05T02:20:32.511Z,6.28
2023-02-05T02:23:17.800Z,4.80
2023-02-05T02:26:28.118Z,7.50
2023-02-05T02:29:04.129Z,5.60
2023-02-05T02:32:02.459Z,6.25
2023-02-05T02:34:43.818Z,6.95
2023-02-05T02:37:25.356Z,4.88
2023-02-05T02:40:18.169Z,4.18
2023-02-05T02:43:05.006Z,4.10
2023-02-05T02:45:46.268Z,5.05
2023-02-05T02:48:21.927Z,6.18
2023-02-05T02:50:56.882Z,5.07
2023-02-05T02:56:08.111Z,4.68
2023-02-05T02:58:52.588Z,7.05
2023-02-05T03:01:32.671Z,5.50
2023-02-05T03:04:31.435Z,4.57
2023-02-05T03:07:18.587Z,4.13
2023-02-05T03:09:56.778Z,5.32
2023-02-05T03:12:32.144Z,5.53
2023-02-05T03:15:06.647Z,5.25
2023-02-05T03:17:40.881Z,5.28
2023-02-05T03:20:22.757Z,7.15
2023-02-05T03:22:58.426Z,8.68
2023-02-05T03:25:34.550Z,9.93
2023-02-05T03:31:04.286Z,6.03
2023-02-05T03:34:04.513Z,5.13
2023-02-05T03:36:58.219Z,7.70
2023-02-05T03:39:47.208Z,5.18
2023-02-05T03:42:36.722Z,4.47
2023-02-05T03:45:23.735Z,10.23
2023-02-05T03:48:13.227Z,7.05
2023-02-05T03:51:10.765Z,4.80
2023-02-05T03:53:59.531Z,6.60
2023-02-05T03:57:10.966Z,4.97
2023-02-05T03:59:50.773Z,6.00
2023-02-05T04:02:23.254Z,4.25
2023-02-05T04:05:00.337Z,5.35
2023-02-05T04:07:34.056Z,9.10
2023-02-05T04:10:07.520Z,8.25
2023-02-05T04:12:40.813Z,6.25
2023-02-05T04:15:13.431Z,7.05
2023-02-05T04:17:49.891Z,6.10
2023-02-05T04:20:21.688Z,5.72
2023-02-05T04:22:53.577Z,4.35
2023-02-05T04:25:26.912Z,4.82
2023-02-05T04:28:06.049Z,3.83
2023-02-05T04:30:41.098Z,5.38
2023-02-05T04:33:15.140Z,6.45
2023-02-05T04:35:50.318Z,4.35
2023-02-05T04:38:22.446Z,4.65
2023-02-05T04:40:56.823Z,6.93
2023-02-05T04:43:28.490Z,5.13
2023-02-05T04:46:25.204Z,4.13
2023-02-05T04:49:03.143Z,6.47
2023-02-05T04:51:34.928Z,5.63
2023-02-05T04:54:06.625Z,11.57
2023-02-05T04:56:39.348Z,6.65
2023-02-05T04:59:13.819Z,5.82
2023-02-05T05:04:19.794Z,6.38
2023-02-05T05:06:51.696Z,9.15
2023-02-05T05:09:24.096Z,6.85
2023-02-05T05:14:56.999Z,6.03
2023-02-05T05:17:30.116Z,7.30
2023-02-05T05:20:02.337Z,8.20
2023-02-05T05:22:34.713Z,7.80
2023-02-05T05:25:06.774Z,6.90
2023-02-05T05:27:39.627Z,5.65
2023-02-05T05:30:12.085Z,7.45
2023-02-05T05:32:43.865Z,5.93
2023-02-05T05:35:15.609Z,7.50
2023-02-05T05:37:47.288Z,7.97
2023-02-05T05:40:37.616Z,6.07
2023-02-05T05:43:34.080Z,6.18
2023-02-05T05:48:38.549Z,6.47
2023-02-05T05:51:12.234Z,6.40
2023-02-05T05:54:09.952Z,7.25
2023-02-05T05:56:41.634Z,7.07
2023-02-05T05:59:13.442Z,6.93
2023-02-05T06:01:45.161Z,10.13
2023-02-05T06:04:16.880Z,11.88
2023-02-05T06:06:50.005Z,7.70
2023-02-05T06:09:22.443Z,11.00
2023-02-05T06:11:56.706Z,8.20
2023-02-05T06:14:28.726Z,6.13
2023-02-05T06:17:00.429Z,7.90
2023-02-05T06:19:32.103Z,7.60
2023-02-05T06:22:06.833Z,7.32
2023-02-05T06:24:38.542Z,8.45
2023-02-05T06:27:10.236Z,10.63
2023-02-05T06:29:41.940Z,10.52
2023-02-05T06:32:13.603Z,7.68
2023-02-05T06:34:45.331Z,7.22
2023-02-05T06:37:17.215Z,7.65
2023-02-05T06:39:49.274Z,9.07
2023-02-05T06:42:21.482Z,7.15
2023-02-05T06:44:53.152Z,10.07
2023-02-05T06:47:24.821Z,6.53
2023-02-05T06:49:59.510Z,6.45
2023-02-05T06:52:31.223Z,11.45
2023-02-05T06:55:05.663Z,9.77
2023-02-05T06:57:39.637Z,9.02
2023-02-05T07:00:12.552Z,10.75
2023-02-05T07:02:44.303Z,9.75
2023-02-05T07:05:19.423Z,8.35
2023-02-05T07:07:51.135Z,8.65
2023-02-05T07:10:24.510Z,8.80
2023-02-05T07:12:56.240Z,8.40
2023-02-05T07:15:28.056Z,7.63
2023-02-05T07:18:00.126Z,6.53
2023-02-05T07:20:31.887Z,7.22
2023-02-05T07:23:03.698Z,8.38
2023-02-05T07:25:38.443Z,7.63
2023-02-05T07:28:10.488Z,7.38
2023-02-05T07:30:42.307Z,8.60
2023-02-05T07:33:14.092Z,9.50
2023-02-05T07:35:45.801Z,10.23
2023-02-05T07:38:17.848Z,8.45
2023-02-05T07:40:49.624Z,10.18
2023-02-05T07:43:21.322Z,8.27
2023-02-05T07:45:58.060Z,10.40
2023-02-05T07:48:30.501Z,8.45
2023-02-05T07:51:03.288Z,8.50
2023-02-05T07:53:38.075Z,8.23
2023-02-05T07:56:13.108Z,7.60
2023-02-05T07:58:44.811Z,9.32
2023-02-05T08:01:16.678Z,7.10
2023-02-05T08:03:49.263Z,7.40
2023-02-05T08:06:21.270Z,8.02
2023-02-05T08:08:53.539Z,6.85
2023-02-05T08:11:25.890Z,8.43
2023-02-05T08:13:58.354Z,9.25
2023-02-05T08:16:30.142Z,7.20
2023-02-05T08:19:01.901Z,6.70
2023-02-05T08:21:33.595Z,5.93
2023-02-05T08:24:05.396Z,7.30
2023-02-05T08:26:37.134Z,7.45
2023-02-05T08:29:11.735Z,5.28
2023-02-05T08:31:43.646Z,6.20
2023-02-05T08:34:15.932Z,5.78
2023-02-05T08:36:49.232Z,7.32
2023-02-05T08:39:20.933Z,6.90
2023-02-05T08:41:52.719Z,8.77
2023-02-05T08:44:24.937Z,8.45
2023-02-05T08:46:57.091Z,7.25
2023-02-05T08:49:28.798Z,7.03
2023-02-05T08:52:06.098Z,7.28
2023-02-05T08:54:39.548Z,7.28
2023-02-05T08:57:11.882Z,7.57
2023-02-05T08:59:44.044Z,7.90
2023-02-05T09:02:20.061Z,7.47
2023-02-05T09:05:01.849Z,7.22
2023-02-05T09:07:42.443Z,14.82
2023-02-05T09:10:18.553Z,5.85
2023-02-05T09:12:50.504Z,4.65
2023-02-05T09:15:22.210Z,5.28
2023-02-05T09:17:54.130Z,4.85
2023-02-05T09:20:25.813Z,7.15
2023-02-05T09:22:57.553Z,7.18
2023-02-05T09:25:30.082Z,6.43
2023-02-05T09:28:02.263Z,7.47
2023-02-05T09:30:36.907Z,5.72
2023-02-05T09:33:08.987Z,6.00
2023-02-05T09:35:43.989Z,5.00
2023-02-05T09:38:17.931Z,4.85
2023-02-05T09:41:10.136Z,4.57
2023-02-05T09:44:08.591Z,9.05
2023-02-05T09:46:59.196Z,5.68
2023-02-05T09:49:38.376Z,6.15
2023-02-05T09:52:17.196Z,5.38
2023-02-05T09:54:54.538Z,5.78
2023-02-05T09:57:44.458Z,3.78
2023-02-05T10:00:52.814Z,4.30
2023-02-05T10:03:32.955Z,4.07
2023-02-05T10:06:12.546Z,3.88
2023-02-05T10:09:17.976Z,7.82
2023-02-05T10:12:07.675Z,3.92
2023-02-05T10:15:05.749Z,3.92
2023-02-05T10:18:09.665Z,2.88
2023-02-05T10:21:02.907Z,3.47
2023-02-05T10:23:49.515Z,5.35
2023-02-05T10:26:25.297Z,3.50
2023-02-05T10:29:16.862Z,3.58
2023-02-05T10:32:10.032Z,6.05
2023-02-05T10:34:54.095Z,6.97
2023-02-05T10:37:50.493Z,3.40
2023-02-05T10:40:27.513Z,5.43
2023-02-05T10:43:16.773Z,5.32
2023-02-05T10:45:49.867Z,3.38
2023-02-05T10:48:54.539Z,4.53
2023-02-05T10:51:39.710Z,3.50
2023-02-05T10:54:32.023Z,5.75
2023-02-05T10:57:06.884Z,4.70
2023-02-05T10:59:55.172Z,4.03
2023-02-05T11:02:33.497Z,5.13
2023-02-05T11:05:20.249Z,6.22
2023-02-05T11:07:53.975Z,6.32
2023-02-05T11:10:31.063Z,6.43
2023-02-05T11:13:18.220Z,3.72
2023-02-05T11:15:54.790Z,3.00
2023-02-05T11:18:55.178Z,6.93
2023-02-05T11:21:55.961Z,5.57
2023-02-05T11:24:36.845Z,4.45
2023-02-05T11:27:30.025Z,4.28
2023-02-05T11:30:50.433Z,3.33
2023-02-05T11:33:29.589Z,3.53
2023-02-05T11:36:05.622Z,3.17
2023-02-05T11:38:48.005Z,2.58
2023-02-05T11:41:51.832Z,3.75
2023-02-05T11:44:30.574Z,4.95
2023-02-05T11:47:03.070Z,5.15
2023-02-05T11:49:41.348Z,4.85
2023-02-05T11:52:15.403Z,3.08
2023-02-05T11:54:49.109Z,4.53
2023-02-05T11:57:20.716Z,6.20
2023-02-05T11:59:57.272Z,3.85
2023-02-05T12:02:30.735Z,5.15
2023-02-05T12:05:24.066Z,4.00
2023-02-05T12:08:02.029Z,3.58
2023-02-05T12:10:53.237Z,4.68
2023-02-05T12:13:35.742Z,3.63
2023-02-05T12:16:07.409Z,5.60
2023-02-05T12:18:45.184Z,3.55
2023-02-05T12:21:44.587Z,3.28
2023-02-05T12:24:34.787Z,4.30
2023-02-05T12:27:32.538Z,6.47
2023-02-05T12:30:04.771Z,5.95
2023-02-05T12:33:01.115Z,8.05
2023-02-05T12:35:46.814Z,3.15
2023-02-05T12:38:32.164Z,6.28
2023-02-05T12:41:19.352Z,3.65
2023-02-05T12:43:58.256Z,5.63
2023-02-05T12:46:38.967Z,5.22
2023-02-05T12:49:33.883Z,3.80
2023-02-05T12:52:30.799Z,5.45
2023-02-05T12:55:25.529Z,3.33
2023-02-05T12:58:01.638Z,4.17
2023-02-05T13:00:50.533Z,6.32
2023-02-05T13:03:37.588Z,5.18
2023-02-05T13:06:16.775Z,3.00
2023-02-05T13:09:13.448Z,5.20
2023-02-05T13:11:59.699Z,4.05
2023-02-05T13:14:48.197Z,3.92
2023-02-05T13:17:28.616Z,5.47
2023-02-05T13:20:49.506Z,5.40
2023-02-05T13:23:40.315Z,5.35
2023-02-05T13:26:24.419Z,5.63
2023-02-05T13:29:12.412Z,6.25
2023-02-05T13:31:50.007Z,3.63
2023-02-05T13:34:22.967Z,7.63
2023-02-05T13:37:14.509Z,3.03
2023-02-05T13:40:24.408Z,3.78
2023-02-05T13:42:58.739Z,4.72
2023-02-05T13:45:44.320Z,5.35
2023-02-05T13:48:34.105Z,5.88
2023-02-05T13:51:20.956Z,6.55
2023-02-05T13:54:11.085Z,4.45
2023-02-05T13:57:05.036Z,9.45
2023-02-05T13:59:51.628Z,5.55
2023-02-05T14:02:32.763Z,4.78
2023-02-05T14:05:07.263Z,4.57
2023-02-05T14:07:51.415Z,4.22
2023-02-05T14:10:40.568Z,4.63
2023-02-05T14:13:25.831Z,4.25
2023-02-05T14:18:43.316Z,5.88
2023-02-05T14:21:30.363Z,5.38
2023-02-05T14:24:42.000Z,5.38
2023-02-05T14:27:41.881Z,5.60
2023-02-05T14:30:49.431Z,3.83
2023-02-05T14:33:31.886Z,3.20
2023-02-05T14:36:22.816Z,4.13
2023-02-05T14:39:01.040Z,4.43
2023-02-05T14:41:41.971Z,3.92
2023-02-05T14:44:21.419Z,4.05
2023-02-05T14:47:21.449Z,3.72
2023-02-05T14:50:10.119Z,4.03
2023-02-05T14:52:50.481Z,8.73
2023-02-05T14:55:29.034Z,8.98
2023-02-05T14:58:09.529Z,8.13
2023-02-05T15:00:44.317Z,5.05
2023-02-05T15:03:36.551Z,8.13
2023-02-05T15:06:15.277Z,7.63
2023-02-05T15:09:05.626Z,6.40
2023-02-05T15:12:09.579Z,5.38
2023-02-05T15:14:52.046Z,5.82
2023-02-05T15:17:29.893Z,6.93
2023-02-05T15:20:20.814Z,4.88
2023-02-05T15:22:58.015Z,5.25
2023-02-05T15:25:36.796Z,5.35
2023-02-05T15:28:18.825Z,4.03
2023-02-05T15:31:32.594Z,8.13
2023-02-05T15:34:47.853Z,5.43
2023-02-05T15:38:25.561Z,4.95
2023-02-05T15:40:58.970Z,5.35
2023-02-05T15:43:30.658Z,6.82
2023-02-05T15:46:11.112Z,7.63
2023-02-05T15:48:42.859Z,6.65
2023-02-05T15:51:33.288Z,6.78
2023-02-05T15:54:07.180Z,5.82
2023-02-05T15:56:42.321Z,7.47
2023-02-05T15:59:20.333Z,7.93
2023-02-05T16:02:05.603Z,7.05
2023-02-05T16:07:29.156Z,5.85
2023-02-05T16:10:02.320Z,6.78
2023-02-05T16:12:34.130Z,8.38
2023-02-05T16:15:07.452Z,8.70
2023-02-05T16:18:02.409Z,8.48
2023-02-05T16:20:40.261Z,7.95
2023-02-05T16:23:35.442Z,6.95
2023-02-05T16:26:19.889Z,7.38
2023-02-05T16:29:02.608Z,5.85
2023-02-05T16:31:37.508Z,6.35
2023-02-05T16:36:50.354Z,6.47
2023-02-05T16:39:27.727Z,6.17
2023-02-05T16:42:10.027Z,7.50
2023-02-05T16:44:44.521Z,8.52
2023-02-05T16:47:19.194Z,8.65
2023-02-05T16:49:52.012Z,6.43
2023-02-05T16:52:38.107Z,8.30
2023-02-05T16:55:15.607Z,7.88
2023-02-05T16:57:48.419Z,7.03
2023-02-05T17:00:30.460Z,12.18
2023-02-05T17:03:17.252Z,9.73
2023-02-05T17:06:04.151Z,7.50
2023-02-05T17:08:37.795Z,6.70
2023-02-05T17:11:39.800Z,7.47
2023-02-05T17:14:11.427Z,8.00
2023-02-05T17:16:49.924Z,6.88
2023-02-05T17:19:31.468Z,9.90
2023-02-05T17:22:15.334Z,7.80
2023-02-05T17:24:49.264Z,9.88
2023-02-05T17:27:37.445Z,7.87
2023-02-05T17:30:15.814Z,11.15
2023-02-05T17:32:48.179Z,8.10
2023-02-05T17:35:27.819Z,8.63
2023-02-05T17:38:02.622Z,9.30
2023-02-05T17:43:06.354Z,10.93
2023-02-05T17:45:42.014Z,12.40
2023-02-05T17:48:13.863Z,9.60
2023-02-05T17:50:46.159Z,11.32
2023-02-05T17:53:17.850Z,10.38
2023-02-05T17:55:49.525Z,10.65
2023-02-05T17:58:21.188Z,9.02
2023-02-05T18:00:53.317Z,8.60
2023-02-05T18:03:25.070Z,10.70
2023-02-05T18:05:58.538Z,10.32
2023-02-05T18:08:30.259Z,11.85
2023-02-05T18:11:02.150Z,12.23
2023-02-05T18:13:33.818Z,11.40
2023-02-05T18:16:05.989Z,11.50
2023-02-05T18:18:39.002Z,14.10
2023-02-05T18:21:10.719Z,13.00
2023-02-05T18:23:44.245Z,12.38
2023-02-05T18:26:16.638Z,17.15
2023-02-05T18:28:48.334Z,16.30
2023-02-05T18:31:20.136Z,12.10
2023-02-05T18:33:52.937Z,14.77
2023-02-05T18:36:24.903Z,13.35
2023-02-05T18:38:57.700Z,13.57
2023-02-05T18:41:29.365Z,16.88
2023-02-05T18:44:01.017Z,16.55
2023-02-05T18:46:32.716Z,18.63
2023-02-05T18:49:04.762Z,17.10
2023-02-05T18:51:37.421Z,16.70
2023-02-05T18:54:09.495Z,15.68
2023-02-05T18:56:41.315Z,16.58
2023-02-05T18:59:15.703Z,16.55
2023-02-05T19:01:50.273Z,19.55
2023-02-05T19:04:22.107Z,15.52
2023-02-05T19:06:54.597Z,15.57
2023-02-05T19:09:27.221Z,15.07
2023-02-05T19:11:59.058Z,16.08
2023-02-05T19:14:33.407Z,15.63
2023-02-05T19:17:06.094Z,17.45
2023-02-05T19:19:38.629Z,16.45
2023-02-05T19:22:10.411Z,18.67
2023-02-05T19:24:51.144Z,14.13
2023-02-05T19:27:23.362Z,15.60
2023-02-05T19:29:55.061Z,15.48
2023-02-05T19:32:26.773Z,18.08
2023-02-05T19:34:59.675Z,15.95
2023-02-05T19:37:31.824Z,14.30
2023-02-05T19:40:04.317Z,16.70
2023-02-05T19:42:37.339Z,14.90
2023-02-05T19:45:09.633Z,12.90
2023-02-05T19:47:41.367Z,16.88
2023-02-05T19:50:13.048Z,19.33
2023-02-05T19:52:44.763Z,20.52
2023-02-05T19:55:16.466Z,15.80
2023-02-05T19:57:51.004Z,19.55
2023-02-05T20:00:24.741Z,18.33
2023-02-05T20:02:57.419Z,24.80
2023-02-05T20:05:29.106Z,18.48
2023-02-05T20:08:00.760Z,20.98
2023-02-05T20:10:32.447Z,20.70
2023-02-05T20:13:04.417Z,23.42
2023-02-05T20:15:36.946Z,23.77
2023-02-05T20:18:08.606Z,22.65
2023-02-05T20:20:42.564Z,19.50
2023-02-05T20:23:14.354Z,23.50
2023-02-05T20:25:52.792Z,20.60
2023-02-05T20:28:27.916Z,21.13
2023-02-05T20:31:18.365Z,22.83
2023-02-05T20:33:50.216Z,20.45
2023-02-05T20:36:21.888Z,24.60
2023-02-05T20:38:57.327Z,21.15
2023-02-05T20:41:29.043Z,27.10
2023-02-05T20:44:01.455Z,25.50
2023-02-05T20:46:33.249Z,26.33
2023-02-05T20:49:05.066Z,24.20
2023-02-05T20:51:37.761Z,30.02
2023-02-05T20:54:10.163Z,28.05
2023-02-05T20:56:42.060Z,34.08
2023-02-05T20:59:17.842Z,30.10
2023-02-05T21:01:52.177Z,28.92
2023-02-05T21:04:24.096Z,32.45
2023-02-05T21:06:55.881Z,30.55
2023-02-05T21:09:27.623Z,27.27
2023-02-05T21:11:59.357Z,32.67
2023-02-05T21:14:31.455Z,29.27
2023-02-05T21:17:03.231Z,29.27
2023-02-05T21:19:34.998Z,27.67
2023-02-05T21:22:06.688Z,30.90
2023-02-05T21:24:38.367Z,35.92
2023-02-05T21:27:12.053Z,35.10
2023-02-05T21:29:43.805Z,31.15
2023-02-05T21:32:15.528Z,35.75
2023-02-05T21:34:47.154Z,31.58
2023-02-05T21:37:18.829Z,33.92
2023-02-05T21:39:52.782Z,36.42
2023-02-05T21:42:24.899Z,39.75
2023-02-05T21:44:56.572Z,37.78
2023-02-05T21:47:28.237Z,40.22
2023-02-05T21:49:59.880Z,42.40
2023-02-05T21:52:31.644Z,47.28
2023-02-05T21:55:03.472Z,42.53
2023-02-05T21:57:35.170Z,47.50
2023-02-05T22:00:07.086Z,40.33
2023-02-05T22:02:43.727Z,43.17
2023-02-05T22:05:15.413Z,45.63
2023-02-05T22:07:47.109Z,41.40
2023-02-05T22:10:18.867Z,37.35
2023-02-05T22:12:50.504Z,39.85
2023-02-05T22:15:22.167Z,41.85
2023-02-05T22:17:53.873Z,38.45
2023-02-05T22:20:25.565Z,41.38
2023-02-05T22:23:00.308Z,42.20
2023-02-05T22:28:03.813Z,37.22
2023-02-05T22:30:35.645Z,35.75
2023-02-05T22:33:07.302Z,38.75
2023-02-05T22:35:38.987Z,39.95
2023-02-05T22:38:10.637Z,35.25
2023-02-05T22:40:42.284Z,37.28
2023-02-05T22:43:13.974Z,31.55
2023-02-05T22:45:45.750Z,40.80
2023-02-05T22:48:17.430Z,35.00
2023-02-05T22:50:49.173Z,36.20
2023-02-05T22:53:20.878Z,31.08
2023-02-05T22:55:52.532Z,34.08
2023-02-05T22:58:24.223Z,35.83
2023-02-05T23:00:55.851Z,33.40
2023-02-05T23:03:27.525Z,39.67
2023-02-05T23:05:59.156Z,30.63
2023-02-05T23:08:30.925Z,37.08
2023-02-05T23:11:13.223Z,33.55
2023-02-05T23:13:45.078Z,37.67
2023-02-05T23:16:27.978Z,36.55
2023-02-05T23:19:03.658Z,45.47
2023-02-05T23:21:37.210Z,41.00
2023-02-05T23:24:13.931Z,42.53
2023-02-05T23:26:48.035Z,37.92
2023-02-05T23:29:20.007Z,37.33
2023-02-05T23:31:51.645Z,39.45
2023-02-05T23:34:23.373Z,41.10
2023-02-05T23:36:55.073Z,39.03
2023-02-05T23:39:26.746Z,39.83
2023-02-05T23:41:58.446Z,43.00
2023-02-05T23:44:30.090Z,39.30
2023-02-05T23:47:01.785Z,39.70
2023-02-05T23:49:33.479Z,38.63
2023-02-05T23:52:05.117Z,40.30
2023-02-05T23:54:36.839Z,49.88
2023-02-05T23:57:08.608Z,54.35
2023-02-05T23:59:42.277Z,48.63
